Time;durP1;ratioP1;P1;durP2;ratioP2;P2;SDS_P1;SDS_P2;PMS_P1;PMS_P2;Temp;Humidity;BMP_temperature;BMP_pressure;BME280_temperature;BME280_humidity;BME280_pressure;Samples;Min_cycle;Max_cycle;Signal;HPM_P1;HPM_P2
2021/01/14 00:00:37;;;;;;;23.35;10.38;;;;;;;-0.43;62.92;98945.02;1601700;88;21251;-68
2021/01/14 00:03:11;;;;;;;18.77;9.43;;;;;;;-0.40;62.91;98948.73;1599069;89;21464;-67
2021/01/14 00:05:39;;;;;;;20.08;8.68;;;;;;;-0.35;62.79;98947.23;1624980;88;22217;-66
2021/01/14 00:08:07;;;;;;;20.50;9.90;;;;;;;-0.29;63.02;98940.85;1629967;88;22019;-67
2021/01/14 00:10:36;;;;;;;16.73;7.80;;;;;;;-0.24;63.00;98930.44;1629947;88;21203;-67
2021/01/14 00:13:09;;;;;;;19.87;9.35;;;;;;;-0.21;62.95;98932.30;1665152;86;21228;-66
2021/01/14 00:15:38;;;;;;;20.25;9.85;;;;;;;-0.25;62.51;98924.72;1665328;85;21209;-67
2021/01/14 00:18:06;;;;;;;19.55;8.00;;;;;;;-0.28;62.68;98933.13;1665452;85;21472;-67
2021/01/14 00:20:33;;;;;;;24.37;10.50;;;;;;;-0.29;62.60;98933.63;1665235;86;21213;-68
2021/01/14 00:23:01;;;;;;;22.75;10.55;;;;;;;-0.30;62.67;98939.17;1631864;88;21450;-66
2021/01/14 00:25:29;;;;;;;21.75;8.85;;;;;;;-0.31;62.64;98934.30;1665203;85;21428;-65
2021/01/14 00:27:57;;;;;;;21.48;9.63;;;;;;;-0.34;62.59;98934.12;1665051;86;21453;-66
2021/01/14 00:30:28;;;;;;;23.65;10.25;;;;;;;-0.39;62.53;98938.30;1631994;88;21476;-67
2021/01/14 00:32:56;;;;;;;21.35;9.68;;;;;;;-0.42;62.89;98939.48;1665131;85;21542;-66
2021/01/14 00:35:29;;;;;;;21.80;9.73;;;;;;;-0.38;62.97;98944.03;1665283;86;21205;-67
2021/01/14 00:37:56;;;;;;;22.00;9.73;;;;;;;-0.35;63.03;98943.70;1632009;88;21223;-67
2021/01/14 00:40:32;;;;;;;20.80;10.08;;;;;;;-0.32;63.02;98940.68;1665645;86;21426;-69
2021/01/14 00:43:02;;;;;;;24.50;10.47;;;;;;;-0.32;63.06;98930.76;1665768;86;21928;-68
2021/01/14 00:45:31;;;;;;;26.33;11.50;;;;;;;-0.30;62.93;98936.48;1665302;86;21691;-68
2021/01/14 00:47:59;;;;;;;23.95;10.15;;;;;;;-0.33;62.84;98929.58;1665323;85;21404;-67
2021/01/14 00:50:27;;;;;;;29.27;12.43;;;;;;;-0.36;62.73;98925.37;1631934;88;21342;-69
2021/01/14 00:52:55;;;;;;;27.35;12.58;;;;;;;-0.37;62.82;98922.84;1665992;86;21488;-68
2021/01/14 00:55:22;;;;;;;26.25;10.53;;;;;;;-0.34;62.79;98927.89;1665565;85;21384;-67
2021/01/14 00:57:50;;;;;;;26.15;11.70;;;;;;;-0.31;62.74;98924.88;1631852;87;21455;-67
2021/01/14 01:00:19;;;;;;;27.27;11.20;;;;;;;-0.34;62.49;98934.63;1663272;86;21247;-68
2021/01/14 01:02:50;;;;;;;29.67;11.38;;;;;;;-0.37;62.62;98934.95;1655995;86;21446;-65
2021/01/14 01:05:18;;;;;;;32.50;13.78;;;;;;;-0.37;62.78;98940.33;1655768;86;21377;-67
2021/01/14 01:07:52;;;;;;;31.70;13.32;;;;;;;-0.39;63.03;98939.66;1656059;86;21506;-66
2021/01/14 01:10:19;;;;;;;30.17;12.90;;;;;;;-0.39;63.42;98929.73;1655634;86;21313;-66
2021/01/14 01:12:54;;;;;;;34.83;13.48;;;;;;;-0.35;63.68;98943.20;1654723;86;21213;-67
2021/01/14 01:15:21;;;;;;;27.98;12.63;;;;;;;-0.38;63.93;98934.11;1654740;86;21581;-67
2021/01/14 01:17:49;;;;;;;28.73;12.03;;;;;;;-0.38;64.26;98932.77;1654883;86;21230;-67
2021/01/14 01:20:16;;;;;;;26.60;11.22;;;;;;;-0.39;64.43;98936.45;1654457;86;21221;-67
2021/01/14 01:22:44;;;;;;;27.58;11.18;;;;;;;-0.45;64.62;98942.49;1654794;86;21900;-67
2021/01/14 01:25:13;;;;;;;27.15;11.65;;;;;;;-0.50;64.96;98940.80;1654753;86;21201;-68
2021/01/14 01:27:41;;;;;;;25.00;10.75;;;;;;;-0.54;65.08;98944.82;1654965;86;21851;-66
2021/01/14 01:30:10;;;;;;;26.65;11.30;;;;;;;-0.56;65.26;98944.14;1654704;86;21882;-67
2021/01/14 01:32:37;;;;;;;30.57;10.65;;;;;;;-0.58;65.41;98947.49;1654427;86;21197;-66
2021/01/14 01:35:06;;;;;;;30.08;11.55;;;;;;;-0.60;65.55;98937.91;1654583;86;21905;-67
2021/01/14 01:37:33;;;;;;;25.60;12.15;;;;;;;-0.62;65.71;98945.30;1655109;86;21848;-66
2021/01/14 01:40:02;;;;;;;29.52;11.63;;;;;;;-0.61;65.84;98942.44;1655057;86;21843;-67
2021/01/14 01:42:29;;;;;;;30.35;13.05;;;;;;;-0.60;65.93;98945.47;1645709;86;21292;-66
2021/01/14 01:45:00;;;;;;;22.22;10.05;;;;;;;-0.56;66.03;98942.80;1617136;88;21957;-67
2021/01/14 01:47:32;;;;;;;32.75;12.82;;;;;;;-0.53;66.03;98943.81;1616742;86;21935;-67
2021/01/14 01:49:55;;;;;;;29.52;13.00;;;;;;;-0.55;66.01;98953.89;1616798;88;21150;-67
2021/01/14 01:52:23;;;;;;;24.18;11.45;;;;;;;-0.55;66.13;98947.17;1616887;88;21210;-67
2021/01/14 01:54:50;;;;;;;30.90;13.20;;;;;;;-0.49;66.05;98949.71;1616601;88;21441;-66
2021/01/14 01:57:17;;;;;;;27.70;12.35;;;;;;;-0.50;65.93;98948.87;1588925;88;21252;-67
2021/01/14 01:59:45;;;;;;;29.42;12.43;;;;;;;-0.51;65.88;98945.84;1630274;88;21968;-67
2021/01/14 02:02:25;;;;;;;31.02;12.47;;;;;;;-0.47;65.82;98947.70;1623647;86;21208;-67
2021/01/14 02:04:54;;;;;;;24.60;10.85;;;;;;;-0.46;65.79;98950.73;1622677;88;21177;-68
2021/01/14 02:07:39;;;;;;;25.75;10.80;;;;;;;-0.43;65.70;98947.21;1622635;88;21260;-66
2021/01/14 02:10:12;;;;;;;24.30;11.85;;;;;;;-0.45;65.47;98941.66;1619052;88;21369;-67
2021/01/14 02:13:11;;;;;;;28.07;11.18;;;;;;;-0.47;65.42;98943.66;1619030;88;21847;-67
2021/01/14 02:15:40;;;;;;;26.87;10.95;;;;;;;-0.46;65.45;98948.87;1619090;88;21166;-67
2021/01/14 02:18:07;;;;;;;32.80;15.10;;;;;;;-0.43;65.43;98955.78;1618853;88;21996;-66
2021/01/14 02:20:35;;;;;;;25.05;10.70;;;;;;;-0.38;65.37;98958.32;1612010;87;21195;-67
2021/01/14 02:23:22;;;;;;;23.02;10.82;;;;;;;-0.33;65.17;98954.64;1604554;89;21955;-67
2021/01/14 02:26:14;;;;;;;23.90;11.00;;;;;;;-0.34;64.91;98956.14;1605013;89;21394;-67
2021/01/14 02:28:44;;;;;;;25.25;10.75;;;;;;;-0.43;64.93;98951.75;1604460;89;21300;-67
2021/01/14 02:31:13;;;;;;;27.50;11.35;;;;;;;-0.48;65.19;98952.73;1604354;87;21532;-67
2021/01/14 02:33:41;;;;;;;27.82;11.35;;;;;;;-0.48;65.33;98956.77;1604661;88;21477;-67
2021/01/14 02:36:08;;;;;;;27.52;12.60;;;;;;;-0.44;65.46;98958.98;1604760;89;21473;-68
2021/01/14 02:38:37;;;;;;;25.23;11.75;;;;;;;-0.40;65.42;98957.64;1604394;88;21426;-69
2021/01/14 02:41:04;;;;;;;25.65;11.18;;;;;;;-0.35;65.48;98958.00;1604463;88;21449;-67
2021/01/14 02:43:32;;;;;;;26.42;10.78;;;;;;;-0.32;65.30;98954.98;1606006;87;21259;-67
2021/01/14 02:46:00;;;;;;;22.87;11.08;;;;;;;-0.34;65.13;98946.23;1609337;89;21974;-67
2021/01/14 02:48:42;;;;;;;25.17;11.33;;;;;;;-0.34;65.05;98940.00;1609333;89;21999;-68
2021/01/14 02:51:32;;;;;;;25.35;11.05;;;;;;;-0.36;65.10;98940.17;1609228;89;21258;-66
2021/01/14 02:54:00;;;;;;;23.73;11.50;;;;;;;-0.35;65.06;98934.28;1576086;89;21210;-66
2021/01/14 02:56:27;;;;;;;27.17;12.18;;;;;;;-0.38;65.11;98930.08;1597707;88;21314;-66
2021/01/14 02:58:56;;;;;;;27.32;12.45;;;;;;;-0.35;65.15;98930.25;1627738;88;21465;-67
2021/01/14 03:01:24;;;;;;;28.17;11.95;;;;;;;-0.34;65.07;98926.05;1611749;88;21260;-66
2021/01/14 03:03:51;;;;;;;26.65;10.82;;;;;;;-0.32;65.11;98928.58;1639512;86;21410;-66
2021/01/14 03:06:19;;;;;;;23.40;11.28;;;;;;;-0.31;64.96;98934.30;1612067;87;21612;-67
2021/01/14 03:08:46;;;;;;;23.73;10.68;;;;;;;-0.35;64.88;98938.31;1639847;86;21377;-67
2021/01/14 03:11:14;;;;;;;24.23;11.25;;;;;;;-0.40;65.01;98936.13;1634626;87;21318;-68
2021/01/14 03:13:42;;;;;;;27.17;12.05;;;;;;;-0.45;65.01;98937.62;1640045;87;21873;-67
2021/01/14 03:16:09;;;;;;;27.95;12.85;;;;;;;-0.50;65.19;98935.92;1612430;89;21371;-67
2021/01/14 03:18:36;;;;;;;22.40;10.58;;;;;;;-0.52;65.30;98937.43;1639948;87;21477;-67
2021/01/14 03:21:04;;;;;;;26.30;12.03;;;;;;;-0.49;65.43;98938.95;1634587;87;21311;-66
2021/01/14 03:23:32;;;;;;;23.25;10.78;;;;;;;-0.47;65.45;98934.25;1640198;87;21157;-66
2021/01/14 03:25:59;;;;;;;24.07;11.35;;;;;;;-0.46;65.44;98933.24;1634715;87;21376;-67
2021/01/14 03:28:27;;;;;;;23.20;10.45;;;;;;;-0.50;65.43;98935.92;1640203;87;21359;-67
2021/01/14 03:30:55;;;;;;;24.50;11.25;;;;;;;-0.55;65.46;98936.41;1612316;87;21411;-68
2021/01/14 03:33:22;;;;;;;26.50;10.53;;;;;;;-0.58;65.71;98934.05;1640064;87;21424;-65
2021/01/14 03:35:50;;;;;;;27.95;12.25;;;;;;;-0.57;65.79;98934.39;1634635;87;21491;-66
2021/01/14 03:38:17;;;;;;;26.62;11.08;;;;;;;-0.56;65.78;98936.07;1639949;86;21471;-67
2021/01/14 03:40:45;;;;;;;29.72;12.65;;;;;;;-0.57;65.85;98939.77;1612344;87;21173;-67
2021/01/14 03:43:13;;;;;;;30.80;13.65;;;;;;;-0.54;65.98;98937.25;1639979;86;21177;-67
2021/01/14 03:45:41;;;;;;;29.90;12.93;;;;;;;-0.49;65.98;98942.48;1612399;87;21845;-67
2021/01/14 03:48:09;;;;;;;30.77;13.13;;;;;;;-0.43;65.96;98937.80;1639930;86;21360;-67
2021/01/14 03:50:36;;;;;;;32.28;14.10;;;;;;;-0.39;65.77;98941.84;1634648;87;21429;-66
2021/01/14 03:53:03;;;;;;;34.43;15.48;;;;;;;-0.38;65.81;98940.83;1639945;86;22021;-66
2021/01/14 03:55:30;;;;;;;33.90;15.32;;;;;;;-0.33;65.78;98934.45;1612402;89;21223;-66
2021/01/14 03:57:58;;;;;;;35.25;14.58;;;;;;;-0.30;65.75;98945.89;1640038;86;21236;-67
2021/01/14 04:00:26;;;;;;;35.03;15.88;;;;;;;-0.30;65.68;98943.20;1612347;87;21161;-67
2021/01/14 04:02:53;;;;;;;31.33;14.78;;;;;;;-0.35;65.74;98949.92;1640002;86;21551;-66
2021/01/14 04:05:20;;;;;;;30.40;14.20;;;;;;;-0.34;65.88;98942.19;1634692;87;21307;-67
2021/01/14 04:07:48;;;;;;;34.60;14.68;;;;;;;-0.32;65.91;98940.17;1640032;87;21204;-67
2021/01/14 04:10:15;;;;;;;30.97;14.18;;;;;;;-0.31;65.88;98936.98;1612385;89;21532;-67
2021/01/14 04:12:42;;;;;;;35.83;15.18;;;;;;;-0.30;65.90;98936.48;1640100;86;21928;-67
2021/01/14 04:15:11;;;;;;;35.92;14.07;;;;;;;-0.30;65.94;98935.13;1634688;87;21196;-66
2021/01/14 04:17:39;;;;;;;33.50;14.35;;;;;;;-0.32;65.93;98929.91;1640051;87;21451;-67
2021/01/14 04:20:08;;;;;;;30.25;14.03;;;;;;;-0.36;66.00;98941.52;1634721;87;21185;-68
2021/01/14 04:22:36;;;;;;;34.95;13.68;;;;;;;-0.37;66.11;98937.64;1640196;87;22124;-67
2021/01/14 04:25:04;;;;;;;33.48;15.35;;;;;;;-0.39;66.19;98935.11;1634629;87;21578;-68
2021/01/14 04:27:32;;;;;;;32.90;14.30;;;;;;;-0.42;66.35;98936.78;1639984;87;21192;-67
2021/01/14 04:30:00;;;;;;;35.00;14.65;;;;;;;-0.38;66.42;98936.80;1634588;87;21182;-69
2021/01/14 04:32:31;;;;;;;31.02;12.98;;;;;;;-0.34;66.39;98933.27;1639928;86;21407;-67
2021/01/14 04:34:57;;;;;;;32.55;12.93;;;;;;;-0.32;66.31;98932.61;1612269;89;21841;-68
2021/01/14 04:37:24;;;;;;;35.15;13.32;;;;;;;-0.33;66.15;98941.19;1639925;87;21530;-68
2021/01/14 04:39:52;;;;;;;33.67;14.28;;;;;;;-0.34;66.02;98947.57;1612433;87;21423;-68
2021/01/14 04:42:19;;;;;;;43.17;14.05;;;;;;;-0.31;66.02;98946.40;1639935;87;21180;-68
2021/01/14 04:44:47;;;;;;;35.15;14.20;;;;;;;-0.27;65.94;98953.14;1599956;87;21397;-68
2021/01/14 04:47:15;;;;;;;38.13;13.93;;;;;;;-0.20;65.86;98946.59;1666523;84;21944;-68
2021/01/14 04:49:42;;;;;;;37.35;15.20;;;;;;;-0.12;65.75;98950.64;1666537;84;21882;-66
2021/01/14 04:52:20;;;;;;;36.17;15.08;;;;;;;-0.06;65.54;98944.09;1666629;84;21784;-69
2021/01/14 04:54:46;;;;;;;30.23;12.55;;;;;;;-0.02;65.35;98945.95;1666783;86;21388;-67
2021/01/14 04:57:20;;;;;;;33.35;14.68;;;;;;;-0.03;65.33;98943.77;1666806;84;21435;-68
2021/01/14 04:59:52;;;;;;;39.10;15.88;;;;;;;-0.04;65.41;98939.89;1624793;86;21494;-66
2021/01/14 05:02:24;;;;;;;38.02;17.05;;;;;;;-0.06;65.60;98931.14;1666519;86;21200;-66
2021/01/14 05:04:53;;;;;;;40.10;16.82;;;;;;;-0.03;65.87;98938.38;1664985;86;21212;-68
2021/01/14 05:07:31;;;;;;;40.85;18.07;;;;;;;-0.05;66.00;98931.48;1638428;87;21177;-68
2021/01/14 05:10:04;;;;;;;36.30;16.67;;;;;;;-0.04;66.25;98925.09;1638761;87;21201;-66
2021/01/14 05:12:34;;;;;;;35.80;16.17;;;;;;;-0.03;66.25;98928.12;1625243;88;21223;-67
2021/01/14 05:15:01;;;;;;;40.12;18.27;;;;;;;-0.05;66.28;98928.28;1625150;88;21198;-68
2021/01/14 05:17:29;;;;;;;39.18;16.50;;;;;;;-0.09;66.37;98929.62;1635372;87;21292;-68
2021/01/14 05:19:56;;;;;;;39.03;17.52;;;;;;;-0.11;66.53;98931.64;1642586;87;21216;-67
2021/01/14 05:22:24;;;;;;;42.50;17.60;;;;;;;-0.15;66.65;98926.25;1642708;87;21886;-67
2021/01/14 05:25:09;;;;;;;39.15;16.60;;;;;;;-0.15;66.75;98928.10;1642839;87;21291;-67
2021/01/14 05:27:37;;;;;;;32.05;14.68;;;;;;;-0.11;66.69;98936.18;1642921;87;21225;-66
2021/01/14 05:30:08;;;;;;;39.03;16.85;;;;;;;-0.14;66.75;98929.28;1643234;87;21204;-67
2021/01/14 05:32:43;;;;;;;34.10;13.35;;;;;;;-0.16;66.76;98933.98;1642776;87;21181;-67
2021/01/14 05:35:15;;;;;;;36.88;15.30;;;;;;;-0.17;66.74;98935.50;1642451;87;21399;-68
2021/01/14 05:37:43;;;;;;;36.40;16.30;;;;;;;-0.26;66.85;98931.95;1642718;86;21224;-67
2021/01/14 05:40:15;;;;;;;33.65;14.80;;;;;;;-0.33;67.15;98947.91;1645704;84;21110;-68
2021/01/14 05:42:42;;;;;;;36.93;16.32;;;;;;;-0.36;67.34;98948.23;1650225;84;21230;-68
2021/01/14 05:45:21;;;;;;;38.78;16.75;;;;;;;-0.42;67.51;98942.67;1643752;86;21476;-68
2021/01/14 05:47:49;;;;;;;39.33;17.27;;;;;;;-0.45;67.66;98939.80;1617394;85;21449;-67
2021/01/14 05:50:28;;;;;;;36.50;14.73;;;;;;;-0.44;67.78;98940.65;1620627;84;21096;-67
2021/01/14 05:52:56;;;;;;;40.60;17.10;;;;;;;-0.41;67.90;98946.55;1658284;86;21178;-68
2021/01/14 05:55:28;;;;;;;43.78;17.95;;;;;;;-0.44;67.92;98949.56;1657425;87;21222;-66
2021/01/14 05:58:02;;;;;;;37.85;16.65;;;;;;;-0.42;68.11;98947.55;1627951;87;21603;-67
2021/01/14 06:00:35;;;;;;;39.03;15.50;;;;;;;-0.39;68.02;98955.30;1651694;85;21470;-66
2021/01/14 06:03:27;;;;;;;34.40;15.32;;;;;;;-0.35;67.94;98954.47;1658951;86;21242;-67
2021/01/14 06:05:55;;;;;;;34.80;14.98;;;;;;;-0.34;67.71;98956.98;1663218;86;21433;-67
2021/01/14 06:08:28;;;;;;;35.10;15.45;;;;;;;-0.30;67.43;98955.31;1663044;86;21202;-67
2021/01/14 06:10:56;;;;;;;43.63;16.35;;;;;;;-0.29;67.32;98953.80;1663141;86;21420;-68
2021/01/14 06:13:38;;;;;;;35.68;17.55;;;;;;;-0.24;67.27;98950.12;1662932;85;21454;-67
2021/01/14 06:16:07;;;;;;;39.75;16.95;;;;;;;-0.20;67.23;98950.13;1663347;86;21179;-67
2021/01/14 06:18:35;;;;;;;39.42;17.00;;;;;;;-0.18;67.08;98949.97;1663287;86;21406;-68
2021/01/14 06:21:03;;;;;;;39.83;16.30;;;;;;;-0.15;67.10;98948.28;1663117;86;21348;-66
2021/01/14 06:23:45;;;;;;;39.20;17.57;;;;;;;-0.12;67.04;98941.23;1663278;86;21410;-66
2021/01/14 06:26:27;;;;;;;41.92;16.15;;;;;;;-0.10;67.01;98941.40;1663139;86;21239;-67
2021/01/14 06:28:55;;;;;;;45.40;18.70;;;;;;;-0.07;66.90;98941.57;1663360;86;21579;-66
2021/01/14 06:31:26;;;;;;;42.95;19.77;;;;;;;-0.08;66.84;98943.92;1663248;86;21230;-67
2021/01/14 06:33:55;;;;;;;48.85;27.13;;;;;;;-0.08;67.03;98948.80;1663357;86;21442;-67
2021/01/14 06:36:28;;;;;;;43.65;21.77;;;;;;;-0.04;67.05;98942.59;1663072;86;21977;-68
2021/01/14 06:39:03;;;;;;;53.75;25.65;;;;;;;-0.03;66.95;98941.08;1662978;86;21867;-68
2021/01/14 06:41:31;;;;;;;232.05;64.05;;;;;;;-0.03;66.90;98945.61;1663288;84;21198;-67
2021/01/14 06:43:59;;;;;;;95.72;36.42;;;;;;;-0.01;66.85;98938.22;1666278;86;21218;-66
2021/01/14 06:46:26;;;;;;;43.05;18.32;;;;;;;0.02;66.88;98935.22;1622142;86;21234;-66
2021/01/14 06:49:13;;;;;;;43.68;18.40;;;;;;;0.07;66.72;98944.98;1663220;85;21526;-67
2021/01/14 06:51:57;;;;;;;41.77;19.23;;;;;;;0.10;66.58;98941.96;1662821;84;21183;-68
2021/01/14 06:54:26;;;;;;;42.13;18.80;;;;;;;0.11;66.75;98940.95;1663311;86;21231;-69
2021/01/14 06:57:15;;;;;;;39.38;16.02;;;;;;;0.10;66.97;98944.66;1663664;86;21355;-68
2021/01/14 06:59:43;;;;;;;46.73;20.37;;;;;;;0.06;67.16;98946.00;1663583;86;21453;-68
2021/01/14 07:02:37;;;;;;;48.80;21.10;;;;;;;0.02;67.38;98947.34;1662347;86;21747;-67
2021/01/14 07:05:06;;;;;;;52.48;21.85;;;;;;;0.03;67.57;98957.61;1652592;86;21486;-67
2021/01/14 07:07:48;;;;;;;49.80;23.98;;;;;;;0.03;67.81;98958.44;1653053;86;21187;-66
2021/01/14 07:10:16;;;;;;;64.85;29.40;;;;;;;0.07;67.95;98955.76;1652920;86;21203;-66
2021/01/14 07:12:44;;;;;;;57.58;24.35;;;;;;;0.14;68.14;98958.13;1653020;86;21476;-67
2021/01/14 07:15:17;;;;;;;47.48;21.45;;;;;;;0.21;68.07;98967.72;1652832;86;21872;-68
2021/01/14 07:17:45;;;;;;;46.63;19.75;;;;;;;0.25;68.14;98967.22;1653243;86;21481;-67
2021/01/14 07:20:15;;;;;;;46.53;19.20;;;;;;;0.27;67.88;98969.23;1652952;86;21581;-68
2021/01/14 07:22:59;;;;;;;69.92;27.48;;;;;;;0.27;67.66;98962.51;1652998;86;21916;-68
2021/01/14 07:25:26;;;;;;;50.88;18.05;;;;;;;0.27;67.68;98969.23;1653007;86;21564;-67
2021/01/14 07:27:55;;;;;;;59.03;23.75;;;;;;;0.33;67.56;98972.27;1652102;86;21418;-68
2021/01/14 07:30:22;;;;;;;190.92;57.13;;;;;;;0.37;67.37;98971.77;1652732;85;21241;-67
2021/01/14 07:33:06;;;;;;;58.25;25.80;;;;;;;0.40;67.12;98973.28;1652349;86;21483;-67
2021/01/14 07:35:40;;;;;;;62.55;26.07;;;;;;;0.41;66.93;98983.05;1653111;86;21472;-68
2021/01/14 07:38:13;;;;;;;63.68;25.82;;;;;;;0.37;66.86;98984.40;1653018;86;21474;-66
2021/01/14 07:40:44;;;;;;;71.28;30.05;;;;;;;0.33;66.98;98972.27;1652692;86;21545;-69
2021/01/14 07:43:14;;;;;;;49.10;21.77;;;;;;;0.34;66.96;98969.92;1653171;85;21398;-67
2021/01/14 07:45:43;;;;;;;49.85;21.87;;;;;;;0.31;66.97;98981.37;1653210;86;21260;-67
2021/01/14 07:48:23;;;;;;;52.48;23.15;;;;;;;0.28;67.11;98978.16;1652179;85;21239;-67
2021/01/14 07:50:59;;;;;;;111.70;41.02;;;;;;;0.25;67.23;98974.45;1650419;85;21290;-67
2021/01/14 07:53:27;;;;;;;85.83;32.48;;;;;;;0.25;67.53;98977.16;1653018;86;21463;-68
2021/01/14 07:55:54;;;;;;;108.57;39.42;;;;;;;0.26;67.61;98982.38;1653013;85;21601;-68
2021/01/14 07:58:24;;;;;;;89.42;34.75;;;;;;;0.29;67.71;98978.50;1652982;86;21920;-68
2021/01/14 08:01:07;;;;;;;107.10;43.23;;;;;;;0.27;67.90;98979.17;1653042;86;21309;-66
2021/01/14 08:03:37;;;;;;;112.83;46.37;;;;;;;0.28;68.11;98976.81;1643787;86;21209;-66
2021/01/14 08:06:46;;;;;;;117.57;44.88;;;;;;;0.34;68.35;98981.53;1592234;88;22031;-67
2021/01/14 08:09:08;;;;;;;87.37;35.88;;;;;;;0.39;68.40;98985.91;1592431;89;21340;-67
2021/01/14 08:11:57;;;;;;;81.02;33.00;;;;;;;0.40;68.54;98995.68;1592319;89;21574;-67
2021/01/14 08:14:38;;;;;;;58.15;23.32;;;;;;;0.41;68.70;98993.33;1592365;88;21343;-67
2021/01/14 08:17:22;;;;;;;65.97;27.00;;;;;;;0.38;68.58;98991.47;1592577;90;21937;-67
2021/01/14 08:19:50;;;;;;;41.75;18.27;;;;;;;0.38;68.77;99003.59;1634916;87;21294;-68
2021/01/14 08:22:18;;;;;;;55.65;24.85;;;;;;;0.43;68.90;99005.28;1633533;86;21707;-68
2021/01/14 08:24:57;;;;;;;65.47;25.82;;;;;;;0.45;68.64;99003.27;1638222;86;21315;-69
2021/01/14 08:27:34;;;;;;;79.12;27.98;;;;;;;0.48;68.57;99005.62;1637170;86;21897;-69
2021/01/14 08:30:16;;;;;;;64.10;27.55;;;;;;;0.49;68.53;99007.30;1635326;86;21198;-66
2021/01/14 08:33:04;;;;;;;47.78;21.00;;;;;;;0.53;68.51;99001.41;1634987;87;21093;-67
2021/01/14 08:35:36;;;;;;;53.70;23.55;;;;;;;0.56;68.33;99005.63;1635150;87;21272;-67
2021/01/14 08:38:13;;;;;;;81.17;38.80;;;;;;;0.57;68.40;99007.30;1642420;86;21081;-68
2021/01/14 08:40:41;;;;;;;58.65;25.70;;;;;;;0.59;68.36;99002.59;1660831;85;21253;-68
2021/01/14 08:43:12;;;;;;;59.45;27.25;;;;;;;0.58;68.29;99010.34;1660103;85;21775;-68
2021/01/14 08:45:53;;;;;;;54.03;24.30;;;;;;;0.56;68.30;99005.11;1659944;85;21277;-66
2021/01/14 08:48:27;;;;;;;56.28;25.10;;;;;;;0.57;68.35;99004.11;1659916;86;21201;-68
2021/01/14 08:51:00;;;;;;;53.73;23.02;;;;;;;0.63;68.54;99003.43;1643062;87;21109;-68
2021/01/14 08:53:36;;;;;;;53.50;22.90;;;;;;;0.71;68.45;99003.97;1643108;86;21317;-68
2021/01/14 08:56:08;;;;;;;53.70;22.27;;;;;;;0.73;68.40;98995.71;1642200;87;21090;-67
2021/01/14 08:58:43;;;;;;;53.63;21.68;;;;;;;0.76;68.53;98996.22;1642941;87;21726;-66
2021/01/14 09:01:22;;;;;;;49.20;21.60;;;;;;;0.79;68.51;98997.73;1643032;87;21395;-67
2021/01/14 09:03:52;;;;;;;41.37;18.90;;;;;;;0.79;68.51;98997.22;1634349;87;21161;-63
2021/01/14 09:06:38;;;;;;;43.35;18.23;;;;;;;0.81;68.50;98992.50;1622683;88;21920;-64
2021/01/14 09:09:07;;;;;;;41.05;18.50;;;;;;;0.82;68.37;98994.19;1632230;87;21212;-65
2021/01/14 09:11:35;;;;;;;39.58;16.65;;;;;;;0.81;68.39;98989.80;1630663;87;21751;-67
2021/01/14 09:14:10;;;;;;;40.78;18.82;;;;;;;0.80;68.36;98992.16;1634013;87;21125;-66
2021/01/14 09:16:39;;;;;;;43.05;17.30;;;;;;;0.77;68.31;98980.88;1629980;88;21984;-66
2021/01/14 09:19:23;;;;;;;43.68;19.65;;;;;;;0.71;68.41;98982.41;1629924;87;21141;-64
2021/01/14 09:21:50;;;;;;;43.33;19.15;;;;;;;0.64;68.57;98980.02;1631815;87;21351;-64
2021/01/14 09:24:18;;;;;;;43.38;17.85;;;;;;;0.70;68.87;98982.06;1631001;87;21118;-65
2021/01/14 09:26:50;;;;;;;41.18;18.52;;;;;;;0.75;68.94;98985.59;1631652;87;21296;-67
2021/01/14 09:29:19;;;;;;;39.78;17.07;;;;;;;0.79;68.96;98980.20;1631459;87;21287;-68
2021/01/14 09:31:47;;;;;;;119.22;38.50;;;;;;;0.81;68.82;98984.41;1634329;87;21578;-66
2021/01/14 09:34:14;;;;;;;65.67;25.05;;;;;;;0.82;68.78;98981.21;1632062;86;21880;-63
2021/01/14 09:36:42;;;;;;;52.03;21.68;;;;;;;0.88;69.13;98985.41;1625235;87;21133;-65
2021/01/14 09:39:15;;;;;;;54.58;24.65;;;;;;;0.96;69.23;98980.52;1621496;87;21287;-66
2021/01/14 09:41:42;;;;;;;44.08;20.05;;;;;;;1.03;69.19;98986.91;1631695;86;21618;-65
2021/01/14 09:44:14;;;;;;;49.95;21.55;;;;;;;1.06;69.34;98987.07;1626843;86;21844;-66
2021/01/14 09:46:44;;;;;;;45.48;20.88;;;;;;;1.10;69.46;98987.91;1622943;86;21159;-74
2021/01/14 09:49:14;;;;;;;53.05;22.15;;;;;;;1.16;69.16;98983.17;1628067;87;21073;-70
2021/01/14 09:51:43;;;;;;;45.75;19.65;;;;;;;1.19;68.79;98976.08;1634268;87;21113;-68
2021/01/14 09:54:10;;;;;;;46.90;20.70;;;;;;;1.21;68.69;98979.95;1633641;87;21709;-65
2021/01/14 09:56:48;;;;;;;53.75;20.65;;;;;;;1.23;68.49;98980.63;1642483;86;21182;-68
2021/01/14 09:59:42;;;;;;;52.73;21.83;;;;;;;1.12;68.15;98985.88;1624799;87;21366;-66
2021/01/14 10:02:18;;;;;;;52.43;21.85;;;;;;;1.12;68.15;98985.88;1632665;86;22283;-72
2021/01/14 10:04:54;;;;;;;52.83;21.80;;;;;;;1.08;68.31;98989.09;1635180;86;21897;-70
2021/01/14 10:07:21;;;;;;;61.45;24.25;;;;;;;1.08;68.46;98971.56;1632706;87;21116;-63
2021/01/14 10:09:51;;;;;;;54.30;21.93;;;;;;;1.08;68.45;98968.35;1631783;87;21803;-63
2021/01/14 10:12:19;;;;;;;55.25;23.12;;;;;;;1.09;68.59;98971.89;1675917;84;21127;-64
2021/01/14 10:14:46;;;;;;;58.83;21.80;;;;;;;1.10;68.69;98968.18;1681051;85;21370;-66
2021/01/14 10:17:15;;;;;;;65.57;26.55;;;;;;;1.10;68.69;98973.58;1665910;85;21124;-63
2021/01/14 10:19:50;;;;;;;75.67;27.40;;;;;;;1.11;68.78;98973.91;1666205;86;21105;-64
2021/01/14 10:22:19;;;;;;;66.53;25.55;;;;;;;1.13;68.92;98969.19;1656664;86;21691;-66
2021/01/14 10:24:47;;;;;;;57.88;23.35;;;;;;;1.17;68.79;98970.52;1660896;86;21353;-65
2021/01/14 10:27:19;;;;;;;57.53;24.00;;;;;;;1.16;68.67;98976.93;1660891;86;21235;-69
2021/01/14 10:29:46;;;;;;;67.15;23.70;;;;;;;1.18;68.65;98978.44;1659783;86;21388;-69
2021/01/14 10:32:17;;;;;;;67.12;26.40;;;;;;;1.17;68.61;98975.91;1653405;86;21097;-66
2021/01/14 10:34:47;;;;;;;64.65;24.80;;;;;;;1.18;68.67;98972.20;1659526;86;21073;-67
2021/01/14 10:37:31;;;;;;;61.90;26.82;;;;;;;1.17;68.70;98965.97;1658471;86;21081;-67
2021/01/14 10:40:01;;;;;;;64.22;24.00;;;;;;;1.16;68.86;98964.80;1660320;86;21377;-64
2021/01/14 10:42:37;;;;;;;61.13;23.90;;;;;;;1.16;68.87;98959.40;1632656;86;21093;-67
2021/01/14 10:45:13;;;;;;;56.75;24.35;;;;;;;1.15;68.89;98955.02;1645642;86;21131;-70
2021/01/14 10:47:42;;;;;;;63.40;26.40;;;;;;;1.13;68.82;98951.66;1658150;85;21365;-65
2021/01/14 10:50:27;;;;;;;61.63;25.27;;;;;;;1.13;68.86;98954.35;1663516;86;21058;-64
2021/01/14 10:53:04;;;;;;;67.70;26.37;;;;;;;1.13;68.91;98949.80;1645895;87;21343;-65
2021/01/14 10:55:32;;;;;;;61.40;25.05;;;;;;;1.15;69.04;98943.72;1660461;85;21340;-65
2021/01/14 10:58:06;;;;;;;61.80;24.87;;;;;;;1.14;69.01;98943.89;1662005;84;21076;-63
2021/01/14 11:00:39;;;;;;;62.70;24.55;;;;;;;1.10;69.10;98942.05;1665826;85;21074;-64
2021/01/14 11:03:10;;;;;;;59.98;23.40;;;;;;;1.11;69.12;98946.94;1633127;87;21323;-67
2021/01/14 11:05:51;;;;;;;58.55;23.10;;;;;;;1.14;69.42;98945.24;1636768;87;21108;-67
2021/01/14 11:08:39;;;;;;;63.38;26.55;;;;;;;1.21;69.68;98934.94;1653858;86;21082;-64
2021/01/14 11:11:10;;;;;;;58.55;23.45;;;;;;;1.24;69.69;98937.79;1648410;86;21027;-66
2021/01/14 11:13:47;;;;;;;56.92;23.75;;;;;;;1.26;69.80;98938.45;1650936;86;21105;-67
2021/01/14 11:16:19;;;;;;;;;;;;;;;1.29;69.91;98935.41;1650627;85;22007;-63
2021/01/14 11:18:48;;;;;;;56.75;22.70;;;;;;;1.32;69.81;98935.09;1648021;86;20226;-67
2021/01/14 11:21:21;;;;;;;58.23;21.57;;;;;;;1.29;69.69;98930.02;1653628;86;21664;-64
2021/01/14 11:23:49;;;;;;;60.75;24.47;;;;;;;1.24;69.76;98931.89;1655976;86;21759;-66
2021/01/14 11:26:18;;;;;;;50.10;19.67;;;;;;;1.19;69.69;98928.03;1658159;86;21090;-65
2021/01/14 11:28:46;;;;;;;58.33;23.40;;;;;;;1.17;69.74;98927.36;1648363;86;21110;-64
2021/01/14 11:31:15;;;;;;;57.83;22.77;;;;;;;1.13;69.97;98920.64;1633150;87;21784;-67
2021/01/14 11:33:42;;;;;;;60.23;24.12;;;;;;;1.11;70.24;98922.66;1646148;86;21091;-66
2021/01/14 11:36:11;;;;;;;58.52;23.80;;;;;;;1.15;70.36;98923.49;1654263;85;21327;-66
2021/01/14 11:38:40;;;;;;;59.85;23.07;;;;;;;1.20;70.48;98927.86;1654118;85;21126;-67
2021/01/14 11:41:08;;;;;;;56.83;23.90;;;;;;;1.21;70.54;98928.70;1625250;87;21433;-65